createdAt,value
2019-03-18T00:02:59.204Z,96908.75
2019-03-18T00:07:53.793Z,96910.80
2019-03-18T00:12:48.442Z,96915.45
2019-03-18T00:17:43.113Z,96913.91
2019-03-18T00:22:37.693Z,96906.78
2019-03-18T00:27:32.301Z,96904.69
2019-03-18T00:32:26.887Z,96891.42
2019-03-18T00:37:21.479Z,96892.01
2019-03-18T00:42:16.070Z,96898.55
2019-03-18T00:47:10.666Z,96908.34
2019-03-18T00:52:05.317Z,96892.17
2019-03-18T00:56:59.911Z,96906.61
2019-03-18T01:01:54.504Z,96911.17
2019-03-18T01:06:49.107Z,96902.75
2019-03-18T01:11:43.696Z,96895.09
2019-03-18T01:16:38.304Z,96893.40
2019-03-18T01:21:32.883Z,96885.30
2019-03-18T01:26:27.479Z,96890.05
2019-03-18T01:31:22.074Z,96877.45
2019-03-18T01:36:16.655Z,96874.53
2019-03-18T01:41:11.252Z,96862.95
2019-03-18T01:46:05.913Z,96864.02
2019-03-18T01:51:00.519Z,96862.04
2019-03-18T01:55:55.116Z,96855.31
2019-03-18T02:00:49.700Z,96850.75
2019-03-18T02:05:44.289Z,96860.58
2019-03-18T02:10:38.888Z,96869.36
2019-03-18T02:15:33.480Z,96874.13
2019-03-18T02:20:28.214Z,96863.47
2019-03-18T02:25:22.812Z,96860.95
2019-03-18T02:30:19.379Z,96859.96
2019-03-18T02:35:14.038Z,96868.11
2019-03-18T02:40:11.723Z,96862.84
2019-03-18T02:45:11.883Z,96859.13
2019-03-18T02:50:08.537Z,96858.73
2019-03-18T02:55:03.254Z,96872.23
2019-03-18T02:59:57.844Z,96872.77
2019-03-18T03:04:52.447Z,96868.92
2019-03-18T03:09:47.084Z,96872.23
2019-03-18T03:14:41.678Z,96868.61
2019-03-18T03:19:36.267Z,96870.70
2019-03-18T03:24:30.881Z,96876.69
2019-03-18T03:29:25.562Z,96881.42
2019-03-18T03:34:20.160Z,96874.84
2019-03-18T03:39:14.763Z,96879.48
2019-03-18T03:44:09.343Z,96882.20
2019-03-18T03:49:04.010Z,96878.43
2019-03-18T03:53:58.672Z,96881.54
2019-03-18T03:58:53.384Z,96890.63
2019-03-18T04:03:48.115Z,96888.66
2019-03-18T04:08:42.775Z,96888.03
2019-03-18T04:13:37.368Z,96887.72
2019-03-18T04:18:31.944Z,96873.81
2019-03-18T04:23:26.551Z,96881.22
2019-03-18T04:28:21.151Z,96887.23
2019-03-18T04:33:15.728Z,96886.36
2019-03-18T04:38:10.324Z,96879.80
2019-03-18T04:43:04.911Z,96886.60
2019-03-18T04:47:59.537Z,96893.61
2019-03-18T04:52:54.104Z,96898.98
2019-03-18T04:57:48.700Z,96900.59
2019-03-18T05:02:43.293Z,96917.99
2019-03-18T05:07:37.966Z,96917.06
2019-03-18T05:12:32.557Z,96913.52
2019-03-18T05:17:27.227Z,96922.18
2019-03-18T05:22:21.815Z,96917.49
2019-03-18T05:27:16.407Z,96934.52
2019-03-18T05:32:11.016Z,96932.51
2019-03-18T05:37:05.611Z,96936.95
2019-03-18T05:42:00.192Z,96932.15
2019-03-18T05:46:54.799Z,96945.94
2019-03-18T05:51:49.394Z,96940.94
2019-03-18T05:56:44.081Z,96949.52
2019-03-18T06:01:38.663Z,96968.66
2019-03-18T06:06:33.243Z,96974.59
2019-03-18T06:11:27.856Z,96983.59
2019-03-18T06:16:22.459Z,96999.30
2019-03-18T06:21:17.071Z,97023.68
2019-03-18T06:26:11.639Z,97033.03
2019-03-18T06:31:06.229Z,97048.03
2019-03-18T06:36:00.838Z,97049.33
2019-03-18T06:40:55.444Z,97056.53
2019-03-18T06:45:50.028Z,97062.55
2019-03-18T06:50:44.724Z,97068.37
2019-03-18T06:55:42.312Z,97073.43
2019-03-18T07:00:37.250Z,97080.71
2019-03-18T07:05:32.040Z,97077.27
2019-03-18T07:10:27.048Z,97097.28
2019-03-18T07:15:21.974Z,97108.47
2019-03-18T07:20:16.974Z,97115.78
2019-03-18T07:25:12.676Z,97124.95
2019-03-18T07:30:16.323Z,97127.37
2019-03-18T07:35:11.406Z,97136.48
2019-03-18T07:40:15.611Z,97141.91
2019-03-18T07:45:15.461Z,97153.08
2019-03-18T07:50:14.617Z,97154.38
2019-03-18T07:55:10.412Z,97159.34
2019-03-18T08:00:12.437Z,97162.95
2019-03-18T08:05:09.978Z,97176.14
2019-03-18T08:10:07.118Z,97185.77
2019-03-18T08:15:01.714Z,97186.77
2019-03-18T08:19:56.619Z,97181.72
2019-03-18T08:24:51.223Z,97188.42
2019-03-18T08:29:45.834Z,97192.35
2019-03-18T08:34:40.419Z,97189.68
2019-03-18T08:39:35.199Z,97177.83
2019-03-18T08:44:29.801Z,97171.93
2019-03-18T08:49:24.403Z,97187.87
2019-03-18T08:54:19.016Z,97189.11
2019-03-18T08:59:13.599Z,97192.67
2019-03-18T09:04:11.712Z,97189.38
2019-03-18T09:09:14.424Z,97201.17
2019-03-18T09:14:10.652Z,97210.23
2019-03-18T09:19:09.000Z,97195.97
2019-03-18T09:24:02.873Z,97205.19
2019-03-18T09:28:57.594Z,97218.63
2019-03-18T09:33:52.325Z,97223.58
2019-03-18T09:38:47.008Z,97229.01
2019-03-18T09:43:42.262Z,97236.48
2019-03-18T09:48:38.618Z,97246.75
2019-03-18T09:53:33.250Z,97240.28
2019-03-18T09:58:27.925Z,97242.21
2019-03-18T10:03:22.857Z,97230.90
2019-03-18T10:08:17.619Z,97226.47
2019-03-18T10:13:12.230Z,97232.52
2019-03-18T10:18:07.003Z,97233.77
2019-03-18T10:23:02.968Z,97242.16
2019-03-18T10:27:57.925Z,97243.25
2019-03-18T10:32:52.541Z,97246.20
2019-03-18T10:37:47.756Z,97240.97
2019-03-18T10:42:45.086Z,97244.13
2019-03-18T10:47:39.700Z,97236.64
2019-03-18T10:52:34.616Z,97239.29
2019-03-18T10:57:29.240Z,97238.16
2019-03-18T11:02:23.860Z,97246.54
2019-03-18T11:07:18.487Z,97251.72
2019-03-18T11:12:13.088Z,97254.91
2019-03-18T11:17:07.705Z,97255.80
2019-03-18T11:22:04.782Z,97258.82
2019-03-18T11:26:59.460Z,97257.75
2019-03-18T11:31:54.292Z,97262.26
2019-03-18T11:36:48.867Z,97253.19
2019-03-18T11:41:43.509Z,97239.84
2019-03-18T11:46:40.470Z,97247.13
2019-03-18T11:51:35.390Z,97235.97
2019-03-18T11:56:30.589Z,97242.86
2019-03-18T12:01:25.310Z,97242.55
2019-03-18T12:06:19.933Z,97232.17
2019-03-18T12:11:14.999Z,97225.25
2019-03-18T12:16:10.134Z,97221.27
2019-03-18T12:21:05.354Z,97219.95
2019-03-18T12:26:00.072Z,97214.05
2019-03-18T12:30:54.677Z,97213.45
2019-03-18T12:35:55.410Z,97213.20
2019-03-18T12:40:54.955Z,97203.16
2019-03-18T12:45:49.617Z,97209.58
2019-03-18T12:50:55.680Z,97201.73
2019-03-18T12:55:40.631Z,97195.28
2019-03-18T13:00:37.580Z,97190.00
2019-03-18T13:05:32.456Z,97192.92
2019-03-18T13:10:27.377Z,97184.38
2019-03-18T13:15:22.667Z,97184.03
2019-03-18T13:20:22.554Z,97180.61
2019-03-18T13:25:17.229Z,97182.49
2019-03-18T13:30:18.183Z,97177.07
2019-03-18T13:35:13.010Z,97180.66
2019-03-18T13:40:14.543Z,97182.59
2019-03-18T13:45:18.793Z,97181.09
2019-03-18T13:50:19.427Z,97190.22
2019-03-18T13:55:14.633Z,97183.52
2019-03-18T14:00:20.997Z,97183.44
2019-03-18T14:05:16.843Z,97197.14
2019-03-18T14:10:17.847Z,97213.63
2019-03-18T14:15:19.080Z,97221.71
2019-03-18T14:20:19.941Z,97251.00
2019-03-18T14:25:15.157Z,97243.37
2019-03-18T14:30:23.855Z,97235.32
2019-03-18T14:35:21.275Z,97233.78
2019-03-18T14:40:20.980Z,97236.27
2019-03-18T14:45:21.366Z,97229.11
2019-03-18T14:50:17.663Z,97221.94
2019-03-18T14:55:14.785Z,97226.14
2019-03-18T15:00:27.195Z,97227.98
2019-03-18T15:05:21.933Z,97224.53
2019-03-18T15:10:23.476Z,97221.53
2019-03-18T15:15:19.859Z,97221.63
2019-03-18T15:20:17.312Z,97217.79
2019-03-18T15:25:16.222Z,97213.67
2019-03-18T15:30:20.237Z,97212.41
2019-03-18T15:35:16.990Z,97215.23
2019-03-18T15:40:27.284Z,97208.41
2019-03-18T15:45:23.276Z,97204.40
2019-03-18T15:50:26.659Z,97214.67
2019-03-18T15:55:23.857Z,97221.81
2019-03-18T16:00:29.039Z,97222.35
2019-03-18T16:05:23.718Z,97235.09
2019-03-18T16:10:20.248Z,97244.90
2019-03-18T16:15:16.910Z,97248.96
2019-03-18T16:20:18.418Z,97265.29
2019-03-18T16:25:13.644Z,97289.88
2019-03-18T16:30:22.260Z,97299.46
2019-03-18T16:35:18.090Z,97307.69
2019-03-18T16:40:16.586Z,97309.08
2019-03-18T16:45:17.272Z,97312.94
2019-03-18T16:50:21.075Z,97318.30
2019-03-18T16:55:15.879Z,97319.30
2019-03-18T17:00:17.579Z,97326.53
2019-03-18T17:05:12.321Z,97339.01
2019-03-18T17:10:15.683Z,97347.23
2019-03-18T17:15:13.505Z,97368.28
2019-03-18T17:20:12.041Z,97373.20
2019-03-18T17:25:11.324Z,97378.58
2019-03-18T17:30:13.162Z,97380.06
2019-03-18T17:35:08.743Z,97397.48
2019-03-18T17:40:03.918Z,97402.77
2019-03-18T17:44:58.538Z,97421.52
2019-03-18T17:49:54.887Z,97423.34
2019-03-18T17:54:49.487Z,97422.60
2019-03-18T17:59:44.098Z,97420.14
2019-03-18T18:04:38.760Z,97433.83
2019-03-18T18:09:33.360Z,97425.20
2019-03-18T18:14:27.939Z,97428.30
2019-03-18T18:19:22.531Z,97438.29
2019-03-18T18:24:17.127Z,97443.13
2019-03-18T18:29:11.721Z,97450.88
2019-03-18T18:34:06.317Z,97452.78
2019-03-18T18:39:00.916Z,97455.38
2019-03-18T18:43:55.499Z,97453.28
2019-03-18T18:48:50.095Z,97459.32
2019-03-18T18:53:44.710Z,97468.38
2019-03-18T18:58:39.304Z,97470.37
2019-03-18T19:03:33.929Z,97470.23
2019-03-18T19:08:28.539Z,97484.63
2019-03-18T19:13:23.147Z,97485.87
2019-03-18T19:18:17.746Z,97488.40
2019-03-18T19:23:12.341Z,97488.40
2019-03-18T19:28:07.987Z,97495.15
2019-03-18T19:33:02.594Z,97490.64
2019-03-18T19:37:57.194Z,97510.96
2019-03-18T19:42:51.936Z,97510.52
2019-03-18T19:47:46.605Z,97511.31
2019-03-18T19:52:41.266Z,97511.85
2019-03-18T19:57:35.903Z,97510.84
2019-03-18T20:02:30.499Z,97513.80
2019-03-18T20:07:25.098Z,97519.70
2019-03-18T20:12:19.673Z,97526.55
2019-03-18T20:17:14.279Z,97534.99
2019-03-18T20:22:08.877Z,97533.20
2019-03-18T20:27:03.463Z,97532.73
2019-03-18T20:31:58.924Z,97540.02
2019-03-18T20:36:53.503Z,97541.33
2019-03-18T20:41:48.133Z,97539.70
2019-03-18T20:46:42.825Z,97546.37
2019-03-18T20:51:37.432Z,97551.38
2019-03-18T20:56:32.017Z,97559.14
2019-03-18T21:01:26.628Z,97566.09
2019-03-18T21:06:21.205Z,97564.63
2019-03-18T21:11:15.803Z,97568.21
2019-03-18T21:16:10.412Z,97572.43
2019-03-18T21:21:05.067Z,97572.41
2019-03-18T21:25:59.673Z,97576.29
2019-03-18T21:30:54.254Z,97584.67
2019-03-18T21:35:48.855Z,97587.36
2019-03-18T21:40:43.498Z,97585.73
2019-03-18T21:45:38.116Z,97587.48
2019-03-18T21:50:32.694Z,97587.48
2019-03-18T21:55:27.352Z,97589.12
2019-03-18T22:00:23.345Z,97588.31
2019-03-18T22:05:18.088Z,97582.77
2019-03-18T22:10:18.325Z,97581.62
2019-03-18T22:15:15.162Z,97581.80
2019-03-18T22:20:20.315Z,97577.13
2019-03-18T22:25:16.009Z,97596.67
2019-03-18T22:30:14.629Z,97592.11
2019-03-18T22:35:11.020Z,97591.82
2019-03-18T22:40:14.898Z,97587.04
2019-03-18T22:45:15.219Z,97596.95
2019-03-18T22:50:14.553Z,97598.00
2019-03-18T22:55:12.515Z,97594.79
2019-03-18T23:00:21.490Z,97593.83
2019-03-18T23:05:16.687Z,97598.92
2019-03-18T23:10:11.511Z,97592.74
2019-03-18T23:15:09.167Z,97593.02
2019-03-18T23:20:04.554Z,97595.41
2019-03-18T23:25:07.082Z,97599.71
2019-03-18T23:29:55.474Z,97598.44
2019-03-18T23:34:50.067Z,97601.83
2019-03-18T23:39:44.668Z,97593.42
2019-03-18T23:44:39.264Z,97606.17
2019-03-18T23:49:33.884Z,97611.97
2019-03-18T23:54:28.539Z,97616.55
2019-03-18T23:59:23.147Z,97624.61
